sensor_id;sensor_type;location;lat;lon;timestamp;temperature;humidity
11836;DHT22;5977;51.972;7.640;2022-10-17T00:00:27;18.80;99.90
11836;DHT22;5977;51.972;7.640;2022-10-17T00:02:55;18.80;99.90
11836;DHT22;5977;51.972;7.640;2022-10-17T00:05:23;18.80;99.90
11836;DHT22;5977;51.972;7.640;2022-10-17T00:07:51;18.80;99.90
11836;DHT22;5977;51.972;7.640;2022-10-17T00:10:21;18.80;99.90
11836;DHT22;5977;51.972;7.640;2022-10-17T00:12:50;18.80;99.90
11836;DHT22;5977;51.972;7.640;2022-10-17T00:15:19;18.80;99.90
11836;DHT22;5977;51.972;7.640;2022-10-17T00:17:47;18.80;99.90
11836;DHT22;5977;51.972;7.640;2022-10-17T00:20:15;18.80;99.90
11836;DHT22;5977;51.972;7.640;2022-10-17T00:22:43;18.80;99.90
11836;DHT22;5977;51.972;7.640;2022-10-17T00:25:11;18.80;99.90
11836;DHT22;5977;51.972;7.640;2022-10-17T00:27:41;18.80;99.80
11836;DHT22;5977;51.972;7.640;2022-10-17T00:30:10;18.80;99.90
11836;DHT22;5977;51.972;7.640;2022-10-17T00:32:39;18.80;99.90
11836;DHT22;5977;51.972;7.640;2022-10-17T00:35:07;18.80;99.90
11836;DHT22;5977;51.972;7.640;2022-10-17T00:37:35;18.80;99.90
11836;DHT22;5977;51.972;7.640;2022-10-17T00:40:05;18.80;99.90
11836;DHT22;5977;51.972;7.640;2022-10-17T00:42:33;18.80;99.90
11836;DHT22;5977;51.972;7.640;2022-10-17T00:45:13;18.80;99.90
11836;DHT22;5977;51.972;7.640;2022-10-17T00:47:42;18.80;99.90
11836;DHT22;5977;51.972;7.640;2022-10-17T00:50:12;18.90;99.90
11836;DHT22;5977;51.972;7.640;2022-10-17T00:52:41;18.80;99.90
11836;DHT22;5977;51.972;7.640;2022-10-17T00:55:12;18.80;99.90
11836;DHT22;5977;51.972;7.640;2022-10-17T00:57:41;18.70;99.90
11836;DHT22;5977;51.972;7.640;2022-10-17T01:00:14;18.70;99.90
11836;DHT22;5977;51.972;7.640;2022-10-17T01:02:42;18.60;99.90
11836;DHT22;5977;51.972;7.640;2022-10-17T01:05:10;18.80;99.90
11836;DHT22;5977;51.972;7.640;2022-10-17T01:07:40;18.70;99.90
11836;DHT22;5977;51.972;7.640;2022-10-17T01:10:09;18.70;99.90
11836;DHT22;5977;51.972;7.640;2022-10-17T01:12:51;18.70;99.90
11836;DHT22;5977;51.972;7.640;2022-10-17T01:15:35;18.70;99.90
11836;DHT22;5977;51.972;7.640;2022-10-17T01:18:15;18.70;99.90
11836;DHT22;5977;51.972;7.640;2022-10-17T01:21:06;18.70;99.90
11836;DHT22;5977;51.972;7.640;2022-10-17T01:26:53;18.70;99.90
11836;DHT22;5977;51.972;7.640;2022-10-17T01:29:48;18.70;99.90
11836;DHT22;5977;51.972;7.640;2022-10-17T01:32:24;18.60;99.90
11836;DHT22;5977;51.972;7.640;2022-10-17T01:34:58;18.60;99.90
11836;DHT22;5977;51.972;7.640;2022-10-17T01:37:29;18.60;99.90
11836;DHT22;5977;51.972;7.640;2022-10-17T01:40:03;18.60;99.90
11836;DHT22;5977;51.972;7.640;2022-10-17T01:42:37;18.60;99.90
11836;DHT22;5977;51.972;7.640;2022-10-17T01:45:10;18.60;99.90
11836;DHT22;5977;51.972;7.640;2022-10-17T01:47:41;18.60;99.90
11836;DHT22;5977;51.972;7.640;2022-10-17T01:50:12;18.60;99.90
11836;DHT22;5977;51.972;7.640;2022-10-17T01:52:44;18.50;99.90
11836;DHT22;5977;51.972;7.640;2022-10-17T01:55:18;18.50;99.90
11836;DHT22;5977;51.972;7.640;2022-10-17T01:57:50;18.60;99.90
11836;DHT22;5977;51.972;7.640;2022-10-17T02:00:22;18.60;99.90
11836;DHT22;5977;51.972;7.640;2022-10-17T02:02:55;18.50;99.90
11836;DHT22;5977;51.972;7.640;2022-10-17T02:05:27;18.50;99.90
11836;DHT22;5977;51.972;7.640;2022-10-17T02:07:58;18.50;99.90
11836;DHT22;5977;51.972;7.640;2022-10-17T02:10:31;18.60;99.90
11836;DHT22;5977;51.972;7.640;2022-10-17T02:13:08;18.50;99.90
11836;DHT22;5977;51.972;7.640;2022-10-17T02:15:50;18.50;99.90
11836;DHT22;5977;51.972;7.640;2022-10-17T02:18:35;18.60;99.90
11836;DHT22;5977;51.972;7.640;2022-10-17T02:21:12;18.60;99.90
11836;DHT22;5977;51.972;7.640;2022-10-17T02:23:49;18.60;99.90
11836;DHT22;5977;51.972;7.640;2022-10-17T02:26:23;18.60;99.90
11836;DHT22;5977;51.972;7.640;2022-10-17T02:29:01;18.60;99.90
11836;DHT22;5977;51.972;7.640;2022-10-17T02:31:34;18.70;99.90
11836;DHT22;5977;51.972;7.640;2022-10-17T02:34:08;18.60;99.90
11836;DHT22;5977;51.972;7.640;2022-10-17T02:36:42;18.60;99.90
11836;DHT22;5977;51.972;7.640;2022-10-17T02:39:12;18.60;99.90
11836;DHT22;5977;51.972;7.640;2022-10-17T02:41:42;18.60;99.90
11836;DHT22;5977;51.972;7.640;2022-10-17T02:44:12;18.70;99.90
11836;DHT22;5977;51.972;7.640;2022-10-17T02:46:46;18.70;99.90
11836;DHT22;5977;51.972;7.640;2022-10-17T02:49:20;18.60;99.90
11836;DHT22;5977;51.972;7.640;2022-10-17T02:51:52;18.70;99.90
11836;DHT22;5977;51.972;7.640;2022-10-17T02:54:29;18.60;99.90
11836;DHT22;5977;51.972;7.640;2022-10-17T02:57:01;18.60;99.90
11836;DHT22;5977;51.972;7.640;2022-10-17T02:59:33;18.60;99.90
11836;DHT22;5977;51.972;7.640;2022-10-17T03:02:02;18.60;99.90
11836;DHT22;5977;51.972;7.640;2022-10-17T03:04:32;18.60;99.90
11836;DHT22;5977;51.972;7.640;2022-10-17T03:07:00;18.70;99.90
11836;DHT22;5977;51.972;7.640;2022-10-17T03:09:28;18.70;99.90
11836;DHT22;5977;51.972;7.640;2022-10-17T03:11:56;18.80;99.90
11836;DHT22;5977;51.972;7.640;2022-10-17T03:14:24;18.80;99.90
11836;DHT22;5977;51.972;7.640;2022-10-17T03:16:52;18.70;99.90
11836;DHT22;5977;51.972;7.640;2022-10-17T03:19:20;18.70;99.90
11836;DHT22;5977;51.972;7.640;2022-10-17T03:21:51;18.70;99.90
11836;DHT22;5977;51.972;7.640;2022-10-17T03:24:18;18.70;99.90
11836;DHT22;5977;51.972;7.640;2022-10-17T03:26:46;18.60;99.90
11836;DHT22;5977;51.972;7.640;2022-10-17T03:29:14;18.70;99.90
11836;DHT22;5977;51.972;7.640;2022-10-17T03:31:42;18.60;99.90
11836;DHT22;5977;51.972;7.640;2022-10-17T03:34:11;18.80;99.90
11836;DHT22;5977;51.972;7.640;2022-10-17T03:36:39;18.90;99.90
11836;DHT22;5977;51.972;7.640;2022-10-17T03:39:09;18.80;99.90
11836;DHT22;5977;51.972;7.640;2022-10-17T03:41:37;18.90;99.90
11836;DHT22;5977;51.972;7.640;2022-10-17T03:44:05;18.90;99.90
11836;DHT22;5977;51.972;7.640;2022-10-17T03:46:32;19.10;99.90
11836;DHT22;5977;51.972;7.640;2022-10-17T03:49:00;19.10;99.90
11836;DHT22;5977;51.972;7.640;2022-10-17T03:51:28;19.20;99.90
11836;DHT22;5977;51.972;7.640;2022-10-17T03:54:02;19.30;99.90
11836;DHT22;5977;51.972;7.640;2022-10-17T03:56:31;19.40;99.90
11836;DHT22;5977;51.972;7.640;2022-10-17T03:59:03;19.40;99.90
11836;DHT22;5977;51.972;7.640;2022-10-17T04:01:33;19.50;99.90
11836;DHT22;5977;51.972;7.640;2022-10-17T04:04:01;19.60;99.90
11836;DHT22;5977;51.972;7.640;2022-10-17T04:06:32;19.60;99.90
11836;DHT22;5977;51.972;7.640;2022-10-17T04:09:01;19.60;99.90
11836;DHT22;5977;51.972;7.640;2022-10-17T04:11:40;19.70;99.90
11836;DHT22;5977;51.972;7.640;2022-10-17T04:14:09;19.60;99.90
11836;DHT22;5977;51.972;7.640;2022-10-17T04:16:38;19.70;99.90
11836;DHT22;5977;51.972;7.640;2022-10-17T04:19:12;19.80;99.90
11836;DHT22;5977;51.972;7.640;2022-10-17T04:21:44;19.80;99.90
11836;DHT22;5977;51.972;7.640;2022-10-17T04:24:13;19.80;99.90
11836;DHT22;5977;51.972;7.640;2022-10-17T04:26:51;19.90;99.90
11836;DHT22;5977;51.972;7.640;2022-10-17T04:29:23;19.80;99.90
11836;DHT22;5977;51.972;7.640;2022-10-17T04:31:57;19.80;99.90
11836;DHT22;5977;51.972;7.640;2022-10-17T04:34:34;19.70;99.90
11836;DHT22;5977;51.972;7.640;2022-10-17T04:37:02;19.60;99.90
11836;DHT22;5977;51.972;7.640;2022-10-17T04:39:32;19.70;99.90
11836;DHT22;5977;51.972;7.640;2022-10-17T04:42:01;19.90;99.90
11836;DHT22;5977;51.972;7.640;2022-10-17T04:44:29;20.00;99.90
11836;DHT22;5977;51.972;7.640;2022-10-17T04:46:59;20.00;99.90
11836;DHT22;5977;51.972;7.640;2022-10-17T04:49:27;19.90;99.90
11836;DHT22;5977;51.972;7.640;2022-10-17T04:52:02;19.90;99.90
11836;DHT22;5977;51.972;7.640;2022-10-17T04:54:36;20.00;99.90
11836;DHT22;5977;51.972;7.640;2022-10-17T04:57:09;20.00;99.90
11836;DHT22;5977;51.972;7.640;2022-10-17T04:59:38;20.10;99.90
11836;DHT22;5977;51.972;7.640;2022-10-17T05:02:42;20.00;99.90
11836;DHT22;5977;51.972;7.640;2022-10-17T05:05:10;20.00;99.90
11836;DHT22;5977;51.972;7.640;2022-10-17T05:07:39;20.10;99.90
11836;DHT22;5977;51.972;7.640;2022-10-17T05:10:13;20.20;99.90
11836;DHT22;5977;51.972;7.640;2022-10-17T05:12:47;20.20;99.90
11836;DHT22;5977;51.972;7.640;2022-10-17T05:15:17;20.20;99.90
11836;DHT22;5977;51.972;7.640;2022-10-17T05:17:44;20.40;99.70
11836;DHT22;5977;51.972;7.640;2022-10-17T05:20:12;20.20;99.90
11836;DHT22;5977;51.972;7.640;2022-10-17T05:22:40;20.40;99.80
11836;DHT22;5977;51.972;7.640;2022-10-17T05:25:10;20.30;99.90
11836;DHT22;5977;51.972;7.640;2022-10-17T05:27:38;20.40;99.50
11836;DHT22;5977;51.972;7.640;2022-10-17T05:30:09;20.30;99.60
11836;DHT22;5977;51.972;7.640;2022-10-17T05:32:38;20.30;99.90
11836;DHT22;5977;51.972;7.640;2022-10-17T05:35:07;20.20;99.60
11836;DHT22;5977;51.972;7.640;2022-10-17T05:37:37;19.90;99.90
11836;DHT22;5977;51.972;7.640;2022-10-17T05:40:05;20.00;99.80
11836;DHT22;5977;51.972;7.640;2022-10-17T05:42:33;20.10;99.30
11836;DHT22;5977;51.972;7.640;2022-10-17T05:45:01;20.20;99.20
11836;DHT22;5977;51.972;7.640;2022-10-17T05:47:31;20.20;98.90
11836;DHT22;5977;51.972;7.640;2022-10-17T05:49:59;20.30;98.70
11836;DHT22;5977;51.972;7.640;2022-10-17T05:52:34;20.40;98.90
11836;DHT22;5977;51.972;7.640;2022-10-17T05:55:09;20.40;98.30
11836;DHT22;5977;51.972;7.640;2022-10-17T05:57:38;20.50;98.20
11836;DHT22;5977;51.972;7.640;2022-10-17T06:00:12;20.40;98.30
11836;DHT22;5977;51.972;7.640;2022-10-17T06:02:42;20.40;98.90
11836;DHT22;5977;51.972;7.640;2022-10-17T06:05:13;20.40;98.40
11836;DHT22;5977;51.972;7.640;2022-10-17T06:07:41;20.40;98.90
11836;DHT22;5977;51.972;7.640;2022-10-17T06:10:09;20.30;99.00
11836;DHT22;5977;51.972;7.640;2022-10-17T06:12:38;20.20;99.80
11836;DHT22;5977;51.972;7.640;2022-10-17T06:15:07;20.00;99.90
11836;DHT22;5977;51.972;7.640;2022-10-17T06:17:37;19.90;99.90
11836;DHT22;5977;51.972;7.640;2022-10-17T06:20:07;19.80;99.90
11836;DHT22;5977;51.972;7.640;2022-10-17T06:22:36;19.70;99.90
11836;DHT22;5977;51.972;7.640;2022-10-17T06:25:10;19.60;99.90
11836;DHT22;5977;51.972;7.640;2022-10-17T06:27:38;19.60;99.90
11836;DHT22;5977;51.972;7.640;2022-10-17T06:30:07;19.60;99.90
11836;DHT22;5977;51.972;7.640;2022-10-17T06:32:35;19.70;99.90
11836;DHT22;5977;51.972;7.640;2022-10-17T06:35:03;19.70;99.90
11836;DHT22;5977;51.972;7.640;2022-10-17T06:37:32;19.80;99.90
11836;DHT22;5977;51.972;7.640;2022-10-17T06:40:06;19.70;99.90
11836;DHT22;5977;51.972;7.640;2022-10-17T06:42:36;19.50;99.90
11836;DHT22;5977;51.972;7.640;2022-10-17T06:45:08;19.30;99.90
11836;DHT22;5977;51.972;7.640;2022-10-17T06:47:51;19.50;99.90
11836;DHT22;5977;51.972;7.640;2022-10-17T06:50:32;19.60;99.90
11836;DHT22;5977;51.972;7.640;2022-10-17T06:53:20;19.70;99.90
11836;DHT22;5977;51.972;7.640;2022-10-17T06:56:06;19.80;99.90
11836;DHT22;5977;51.972;7.640;2022-10-17T06:58:57;19.80;99.90
11836;DHT22;5977;51.972;7.640;2022-10-17T07:01:30;19.80;99.90
11836;DHT22;5977;51.972;7.640;2022-10-17T07:03:59;19.90;99.90
11836;DHT22;5977;51.972;7.640;2022-10-17T07:06:28;19.90;99.90
11836;DHT22;5977;51.972;7.640;2022-10-17T07:09:02;19.90;99.90
11836;DHT22;5977;51.972;7.640;2022-10-17T07:11:34;20.00;99.90
11836;DHT22;5977;51.972;7.640;2022-10-17T07:14:02;19.90;99.90
11836;DHT22;5977;51.972;7.640;2022-10-17T07:16:30;19.90;99.90
11836;DHT22;5977;51.972;7.640;2022-10-17T07:19:05;20.00;99.90
11836;DHT22;5977;51.972;7.640;2022-10-17T07:21:35;20.00;99.90
11836;DHT22;5977;51.972;7.640;2022-10-17T07:24:07;20.10;99.90
11836;DHT22;5977;51.972;7.640;2022-10-17T07:26:35;20.20;99.90
11836;DHT22;5977;51.972;7.640;2022-10-17T07:29:03;20.20;99.90
11836;DHT22;5977;51.972;7.640;2022-10-17T07:31:54;20.30;99.90
11836;DHT22;5977;51.972;7.640;2022-10-17T07:34:22;20.20;99.90
11836;DHT22;5977;51.972;7.640;2022-10-17T07:36:53;20.20;99.90
11836;DHT22;5977;51.972;7.640;2022-10-17T07:39:23;20.20;99.90
11836;DHT22;5977;51.972;7.640;2022-10-17T07:41:51;20.20;99.90
11836;DHT22;5977;51.972;7.640;2022-10-17T07:44:20;20.20;99.90
11836;DHT22;5977;51.972;7.640;2022-10-17T07:46:50;20.30;99.90
11836;DHT22;5977;51.972;7.640;2022-10-17T07:49:18;20.40;99.90
11836;DHT22;5977;51.972;7.640;2022-10-17T07:51:46;20.50;99.90
11836;DHT22;5977;51.972;7.640;2022-10-17T07:54:15;20.50;99.90
11836;DHT22;5977;51.972;7.640;2022-10-17T07:56:44;20.60;99.90
11836;DHT22;5977;51.972;7.640;2022-10-17T07:59:16;20.50;99.90
11836;DHT22;5977;51.972;7.640;2022-10-17T08:01:44;20.60;99.90
11836;DHT22;5977;51.972;7.640;2022-10-17T08:04:12;20.50;99.90
11836;DHT22;5977;51.972;7.640;2022-10-17T08:06:39;20.50;99.90
11836;DHT22;5977;51.972;7.640;2022-10-17T08:09:07;20.60;99.90
11836;DHT22;5977;51.972;7.640;2022-10-17T08:11:35;20.60;99.90
11836;DHT22;5977;51.972;7.640;2022-10-17T08:14:04;20.70;99.90
11836;DHT22;5977;51.972;7.640;2022-10-17T08:16:32;20.80;99.90
11836;DHT22;5977;51.972;7.640;2022-10-17T08:19:00;20.80;99.90
11836;DHT22;5977;51.972;7.640;2022-10-17T08:21:28;20.80;99.90
11836;DHT22;5977;51.972;7.640;2022-10-17T08:23:56;20.60;99.90
11836;DHT22;5977;51.972;7.640;2022-10-17T08:26:24;20.60;99.90
11836;DHT22;5977;51.972;7.640;2022-10-17T08:28:52;20.60;99.90
11836;DHT22;5977;51.972;7.640;2022-10-17T08:31:21;20.70;99.90
11836;DHT22;5977;51.972;7.640;2022-10-17T08:33:49;20.80;99.90
11836;DHT22;5977;51.972;7.640;2022-10-17T08:36:19;20.80;99.90
11836;DHT22;5977;51.972;7.640;2022-10-17T08:38:47;20.90;99.90
11836;DHT22;5977;51.972;7.640;2022-10-17T08:41:36;20.90;99.90
11836;DHT22;5977;51.972;7.640;2022-10-17T08:44:15;21.00;99.90
11836;DHT22;5977;51.972;7.640;2022-10-17T08:46:52;21.40;99.30
11836;DHT22;5977;51.972;7.640;2022-10-17T08:49:25;21.40;99.00
11836;DHT22;5977;51.972;7.640;2022-10-17T08:52:01;21.40;98.60
11836;DHT22;5977;51.972;7.640;2022-10-17T08:54:37;21.40;98.50
11836;DHT22;5977;51.972;7.640;2022-10-17T08:57:10;21.60;97.30
11836;DHT22;5977;51.972;7.640;2022-10-17T08:59:38;21.60;97.40
11836;DHT22;5977;51.972;7.640;2022-10-17T09:02:21;21.60;97.60
11836;DHT22;5977;51.972;7.640;2022-10-17T09:05:22;21.60;97.20
11836;DHT22;5977;51.972;7.640;2022-10-17T09:07:59;21.70;96.60
11836;DHT22;5977;51.972;7.640;2022-10-17T09:10:37;21.50;97.60
11836;DHT22;5977;51.972;7.640;2022-10-17T09:13:17;21.50;97.30
11836;DHT22;5977;51.972;7.640;2022-10-17T09:16:10;21.60;97.10
11836;DHT22;5977;51.972;7.640;2022-10-17T09:18:46;21.60;97.00
11836;DHT22;5977;51.972;7.640;2022-10-17T09:21:21;21.60;97.00
11836;DHT22;5977;51.972;7.640;2022-10-17T09:23:53;21.60;97.20
11836;DHT22;5977;51.972;7.640;2022-10-17T09:26:36;21.60;97.50
11836;DHT22;5977;51.972;7.640;2022-10-17T09:29:13;21.60;97.10
11836;DHT22;5977;51.972;7.640;2022-10-17T09:31:46;21.60;97.60
11836;DHT22;5977;51.972;7.640;2022-10-17T09:34:17;21.60;97.00
11836;DHT22;5977;51.972;7.640;2022-10-17T09:36:47;21.70;96.80
11836;DHT22;5977;51.972;7.640;2022-10-17T09:39:17;21.90;95.90
11836;DHT22;5977;51.972;7.640;2022-10-17T09:41:48;22.00;95.80
11836;DHT22;5977;51.972;7.640;2022-10-17T09:44:19;21.90;95.40
11836;DHT22;5977;51.972;7.640;2022-10-17T09:47:03;21.90;95.60
11836;DHT22;5977;51.972;7.640;2022-10-17T09:49:38;21.90;95.70
11836;DHT22;5977;51.972;7.640;2022-10-17T09:52:11;21.80;96.00
11836;DHT22;5977;51.972;7.640;2022-10-17T09:54:43;21.80;96.30
11836;DHT22;5977;51.972;7.640;2022-10-17T09:57:13;21.80;96.30
11836;DHT22;5977;51.972;7.640;2022-10-17T09:59:43;21.80;96.70
11836;DHT22;5977;51.972;7.640;2022-10-17T10:02:17;21.90;95.90
11836;DHT22;5977;51.972;7.640;2022-10-17T10:04:56;21.90;96.20
11836;DHT22;5977;51.972;7.640;2022-10-17T10:07:35;22.10;95.30
11836;DHT22;5977;51.972;7.640;2022-10-17T10:10:06;22.20;94.70
11836;DHT22;5977;51.972;7.640;2022-10-17T10:12:36;22.20;94.40
11836;DHT22;5977;51.972;7.640;2022-10-17T10:15:30;22.30;94.20
11836;DHT22;5977;51.972;7.640;2022-10-17T10:17:58;22.30;94.10
11836;DHT22;5977;51.972;7.640;2022-10-17T10:20:34;22.30;94.00
11836;DHT22;5977;51.972;7.640;2022-10-17T10:23:09;22.20;94.50
11836;DHT22;5977;51.972;7.640;2022-10-17T10:25:41;22.20;94.50
11836;DHT22;5977;51.972;7.640;2022-10-17T10:28:16;22.20;94.20
11836;DHT22;5977;51.972;7.640;2022-10-17T10:30:47;22.20;94.30
11836;DHT22;5977;51.972;7.640;2022-10-17T10:33:18;22.20;94.50
11836;DHT22;5977;51.972;7.640;2022-10-17T10:35:54;22.20;94.50
11836;DHT22;5977;51.972;7.640;2022-10-17T10:38:23;22.10;94.90
11836;DHT22;5977;51.972;7.640;2022-10-17T10:40:52;22.10;94.80
11836;DHT22;5977;51.972;7.640;2022-10-17T10:43:25;22.10;94.70
11836;DHT22;5977;51.972;7.640;2022-10-17T10:45:56;22.10;94.80
11836;DHT22;5977;51.972;7.640;2022-10-17T10:48:25;22.10;95.10
11836;DHT22;5977;51.972;7.640;2022-10-17T10:50:57;22.00;95.20
11836;DHT22;5977;51.972;7.640;2022-10-17T10:53:33;22.00;95.20
11836;DHT22;5977;51.972;7.640;2022-10-17T10:56:08;22.10;95.00
11836;DHT22;5977;51.972;7.640;2022-10-17T10:58:48;21.90;95.20
11836;DHT22;5977;51.972;7.640;2022-10-17T11:01:21;21.70;96.30
11836;DHT22;5977;51.972;7.640;2022-10-17T11:04:00;21.50;96.50
11836;DHT22;5977;51.972;7.640;2022-10-17T11:06:36;21.60;95.70
11836;DHT22;5977;51.972;7.640;2022-10-17T11:09:12;21.70;95.40
11836;DHT22;5977;51.972;7.640;2022-10-17T11:11:47;21.80;95.20
11836;DHT22;5977;51.972;7.640;2022-10-17T11:14:20;21.90;95.50
11836;DHT22;5977;51.972;7.640;2022-10-17T11:16:59;21.80;96.50
11836;DHT22;5977;51.972;7.640;2022-10-17T11:19:34;21.90;96.20
11836;DHT22;5977;51.972;7.640;2022-10-17T11:22:10;21.90;96.50
11836;DHT22;5977;51.972;7.640;2022-10-17T11:24:55;21.90;95.80
11836;DHT22;5977;51.972;7.640;2022-10-17T11:27:27;21.80;95.50
11836;DHT22;5977;51.972;7.640;2022-10-17T11:29:56;21.80;96.00
11836;DHT22;5977;51.972;7.640;2022-10-17T11:32:27;21.80;96.10
11836;DHT22;5977;51.972;7.640;2022-10-17T11:35:00;21.90;95.80
11836;DHT22;5977;51.972;7.640;2022-10-17T11:37:34;22.00;95.30
11836;DHT22;5977;51.972;7.640;2022-10-17T11:40:09;22.00;95.00
11836;DHT22;5977;51.972;7.640;2022-10-17T11:42:51;22.10;94.70
11836;DHT22;5977;51.972;7.640;2022-10-17T11:45:22;22.20;94.50
11836;DHT22;5977;51.972;7.640;2022-10-17T11:47:54;22.10;94.40
11836;DHT22;5977;51.972;7.640;2022-10-17T11:50:27;22.10;94.50
11836;DHT22;5977;51.972;7.640;2022-10-17T11:53:21;22.10;94.40
11836;DHT22;5977;51.972;7.640;2022-10-17T11:55:49;22.10;94.70
11836;DHT22;5977;51.972;7.640;2022-10-17T11:58:33;22.10;94.70
11836;DHT22;5977;51.972;7.640;2022-10-17T12:01:12;22.10;94.50
11836;DHT22;5977;51.972;7.640;2022-10-17T12:03:52;22.10;94.80
11836;DHT22;5977;51.972;7.640;2022-10-17T12:06:35;22.20;94.50
11836;DHT22;5977;51.972;7.640;2022-10-17T12:09:11;22.10;94.50
11836;DHT22;5977;51.972;7.640;2022-10-17T12:11:48;22.20;94.70
11836;DHT22;5977;51.972;7.640;2022-10-17T12:14:38;22.10;95.30
11836;DHT22;5977;51.972;7.640;2022-10-17T12:17:24;22.20;95.20
11836;DHT22;5977;51.972;7.640;2022-10-17T12:19:53;22.10;95.80
11836;DHT22;5977;51.972;7.640;2022-10-17T12:22:22;22.10;96.00
11836;DHT22;5977;51.972;7.640;2022-10-17T12:24:58;22.20;95.40
11836;DHT22;5977;51.972;7.640;2022-10-17T12:27:38;22.10;95.40
11836;DHT22;5977;51.972;7.640;2022-10-17T12:30:17;22.10;95.80
11836;DHT22;5977;51.972;7.640;2022-10-17T12:33:03;22.10;96.00
11836;DHT22;5977;51.972;7.640;2022-10-17T12:35:36;22.10;96.00
11836;DHT22;5977;51.972;7.640;2022-10-17T12:38:23;22.10;95.90
11836;DHT22;5977;51.972;7.640;2022-10-17T12:41:00;22.20;95.80
11836;DHT22;5977;51.972;7.640;2022-10-17T12:43:44;22.20;95.80
11836;DHT22;5977;51.972;7.640;2022-10-17T12:46:42;22.30;95.40
11836;DHT22;5977;51.972;7.640;2022-10-17T12:49:25;22.20;95.50
11836;DHT22;5977;51.972;7.640;2022-10-17T12:55:12;22.20;95.70
11836;DHT22;5977;51.972;7.640;2022-10-17T12:57:47;22.10;95.90
11836;DHT22;5977;51.972;7.640;2022-10-17T13:00:20;22.10;96.10
11836;DHT22;5977;51.972;7.640;2022-10-17T13:02:53;22.10;96.80
11836;DHT22;5977;51.972;7.640;2022-10-17T13:05:26;22.00;97.30
11836;DHT22;5977;51.972;7.640;2022-10-17T13:07:56;21.90;98.30
11836;DHT22;5977;51.972;7.640;2022-10-17T13:10:28;21.90;99.20
11836;DHT22;5977;51.972;7.640;2022-10-17T13:13:04;21.90;98.80
11836;DHT22;5977;51.972;7.640;2022-10-17T13:15:33;21.90;99.50
11836;DHT22;5977;51.972;7.640;2022-10-17T13:18:03;21.90;99.90
11836;DHT22;5977;51.972;7.640;2022-10-17T13:20:31;21.80;99.90
11836;DHT22;5977;51.972;7.640;2022-10-17T13:22:59;21.80;99.90
11836;DHT22;5977;51.972;7.640;2022-10-17T13:25:27;21.70;99.90
11836;DHT22;5977;51.972;7.640;2022-10-17T13:28:09;21.70;99.90
11836;DHT22;5977;51.972;7.640;2022-10-17T13:30:39;21.80;99.90
11836;DHT22;5977;51.972;7.640;2022-10-17T13:33:30;21.80;99.90
11836;DHT22;5977;51.972;7.640;2022-10-17T13:35:59;21.80;99.90
11836;DHT22;5977;51.972;7.640;2022-10-17T13:38:31;21.80;99.90
11836;DHT22;5977;51.972;7.640;2022-10-17T13:41:02;21.80;99.90
11836;DHT22;5977;51.972;7.640;2022-10-17T13:43:50;21.80;99.90
11836;DHT22;5977;51.972;7.640;2022-10-17T13:46:25;21.80;99.90
11836;DHT22;5977;51.972;7.640;2022-10-17T13:49:11;21.70;99.90
11836;DHT22;5977;51.972;7.640;2022-10-17T13:51:43;21.70;99.90
11836;DHT22;5977;51.972;7.640;2022-10-17T13:54:31;21.70;99.90
11836;DHT22;5977;51.972;7.640;2022-10-17T13:57:00;21.80;99.90
11836;DHT22;5977;51.972;7.640;2022-10-17T13:59:33;21.80;99.90
11836;DHT22;5977;51.972;7.640;2022-10-17T14:02:04;21.70;99.90
11836;DHT22;5977;51.972;7.640;2022-10-17T14:04:39;21.70;99.90
11836;DHT22;5977;51.972;7.640;2022-10-17T14:07:30;21.60;99.90
11836;DHT22;5977;51.972;7.640;2022-10-17T14:10:22;21.60;99.90
11836;DHT22;5977;51.972;7.640;2022-10-17T14:12:51;21.50;99.90
11836;DHT22;5977;51.972;7.640;2022-10-17T14:15:22;21.60;99.90
11836;DHT22;5977;51.972;7.640;2022-10-17T14:17:54;21.70;99.90
11836;DHT22;5977;51.972;7.640;2022-10-17T14:20:24;21.60;99.90
11836;DHT22;5977;51.972;7.640;2022-10-17T14:23:34;21.70;99.90
11836;DHT22;5977;51.972;7.640;2022-10-17T14:26:11;21.70;99.90
11836;DHT22;5977;51.972;7.640;2022-10-17T14:28:42;21.60;99.90
11836;DHT22;5977;51.972;7.640;2022-10-17T14:31:28;21.70;99.90
11836;DHT22;5977;51.972;7.640;2022-10-17T14:33:57;21.60;99.90
11836;DHT22;5977;51.972;7.640;2022-10-17T14:36:34;21.70;99.90
11836;DHT22;5977;51.972;7.640;2022-10-17T14:39:05;21.70;99.90
11836;DHT22;5977;51.972;7.640;2022-10-17T14:41:42;21.70;99.90
11836;DHT22;5977;51.972;7.640;2022-10-17T14:44:18;21.70;99.90
11836;DHT22;5977;51.972;7.640;2022-10-17T14:46:50;21.70;99.90
11836;DHT22;5977;51.972;7.640;2022-10-17T14:49:23;21.70;99.90
11836;DHT22;5977;51.972;7.640;2022-10-17T14:52:24;21.70;99.90
11836;DHT22;5977;51.972;7.640;2022-10-17T14:54:53;21.70;99.90
11836;DHT22;5977;51.972;7.640;2022-10-17T14:57:27;21.50;99.90
11836;DHT22;5977;51.972;7.640;2022-10-17T14:59:56;21.60;99.90
11836;DHT22;5977;51.972;7.640;2022-10-17T15:02:24;21.60;99.90
11836;DHT22;5977;51.972;7.640;2022-10-17T15:04:53;21.60;99.90
11836;DHT22;5977;51.972;7.640;2022-10-17T15:07:22;21.60;99.90
11836;DHT22;5977;51.972;7.640;2022-10-17T15:09:52;21.60;99.90
11836;DHT22;5977;51.972;7.640;2022-10-17T15:12:21;21.50;99.90
11836;DHT22;5977;51.972;7.640;2022-10-17T15:14:50;21.60;99.90
11836;DHT22;5977;51.972;7.640;2022-10-17T15:17:21;21.60;99.90
11836;DHT22;5977;51.972;7.640;2022-10-17T15:19:49;21.60;99.90
11836;DHT22;5977;51.972;7.640;2022-10-17T15:22:17;21.60;99.90
11836;DHT22;5977;51.972;7.640;2022-10-17T15:24:47;21.60;99.90
11836;DHT22;5977;51.972;7.640;2022-10-17T15:27:16;21.60;99.90
11836;DHT22;5977;51.972;7.640;2022-10-17T15:29:45;21.60;99.90
11836;DHT22;5977;51.972;7.640;2022-10-17T15:32:13;21.60;99.90
11836;DHT22;5977;51.972;7.640;2022-10-17T15:34:42;21.60;99.90
11836;DHT22;5977;51.972;7.640;2022-10-17T15:37:16;21.50;99.90
11836;DHT22;5977;51.972;7.640;2022-10-17T15:39:49;21.50;99.90
11836;DHT22;5977;51.972;7.640;2022-10-17T15:42:20;21.60;99.90
11836;DHT22;5977;51.972;7.640;2022-10-17T15:44:48;21.60;99.90
11836;DHT22;5977;51.972;7.640;2022-10-17T15:47:23;21.60;99.90
11836;DHT22;5977;51.972;7.640;2022-10-17T15:49:52;21.50;99.90
11836;DHT22;5977;51.972;7.640;2022-10-17T15:52:20;21.50;99.90
11836;DHT22;5977;51.972;7.640;2022-10-17T15:54:50;21.50;99.90
11836;DHT22;5977;51.972;7.640;2022-10-17T15:57:20;21.50;99.90
11836;DHT22;5977;51.972;7.640;2022-10-17T15:59:49;21.60;99.90
11836;DHT22;5977;51.972;7.640;2022-10-17T16:02:19;21.60;99.90
11836;DHT22;5977;51.972;7.640;2022-10-17T16:04:48;21.50;99.90
11836;DHT22;5977;51.972;7.640;2022-10-17T16:07:16;21.50;99.90
11836;DHT22;5977;51.972;7.640;2022-10-17T16:09:44;21.60;99.90
11836;DHT22;5977;51.972;7.640;2022-10-17T16:12:16;21.50;99.90
11836;DHT22;5977;51.972;7.640;2022-10-17T16:14:44;21.50;99.90
11836;DHT22;5977;51.972;7.640;2022-10-17T16:17:13;21.40;99.90
11836;DHT22;5977;51.972;7.640;2022-10-17T16:19:41;21.50;99.90
11836;DHT22;5977;51.972;7.640;2022-10-17T16:22:17;21.40;99.90
11836;DHT22;5977;51.972;7.640;2022-10-17T16:24:46;21.40;99.90
11836;DHT22;5977;51.972;7.640;2022-10-17T16:27:15;21.40;99.90